Time;durP1;ratioP1;P1;durP2;ratioP2;P2;SDS_P1;SDS_P2;PMS_P1;PMS_P2;Temp;Humidity;BMP_temperature;BMP_pressure;BME280_temperature;BME280_humidity;BME280_pressure;Samples;Min_cycle;Max_cycle;Signal;HPM_P1;HPM_P2
2022/05/20 00:01:50;;;;;;;0.00;0.00;;;23.50;66.80;;;;;;4210169;28;20580;-67
2022/05/20 00:04:12;;;;;;;0.00;0.00;;;23.50;66.80;;;;;;4209566;28;20147;-67
2022/05/20 00:06:36;;;;;;;0.00;0.00;;;23.50;67.70;;;;;;4209363;28;20048;-67
2022/05/20 00:08:58;;;;;;;0.10;0.10;;;23.50;66.90;;;;;;4209746;28;20419;-67
2022/05/20 00:11:20;;;;;;;0.08;0.08;;;23.50;66.90;;;;;;4214382;28;20112;-67
2022/05/20 00:13:43;;;;;;;0.00;0.00;;;23.50;67.30;;;;;;4226832;27;20044;-66
2022/05/20 00:16:05;;;;;;;0.00;0.00;;;23.50;66.90;;;;;;4226225;27;20855;-66
2022/05/20 00:18:28;;;;;;;0.00;0.00;;;23.40;66.90;;;;;;4226381;27;20058;-66
2022/05/20 00:20:50;;;;;;;0.00;0.00;;;23.40;66.90;;;;;;4210559;28;20056;-67
2022/05/20 00:23:14;;;;;;;0.00;0.00;;;23.40;66.90;;;;;;4209383;28;20127;-66
2022/05/20 00:25:47;;;;;;;0.10;0.10;;;23.40;66.90;;;;;;4217347;28;20058;-66
2022/05/20 00:28:09;;;;;;;0.00;0.00;;;23.40;66.90;;;;;;4225926;27;20429;-67
2022/05/20 00:30:32;;;;;;;0.17;0.17;;;23.40;66.90;;;;;;4225731;28;20044;-67
2022/05/20 00:32:55;;;;;;;0.00;0.00;;;23.40;67.00;;;;;;4192550;28;20055;-68
2022/05/20 00:35:17;;;;;;;0.05;0.05;;;23.40;67.00;;;;;;4207574;28;20075;-67
2022/05/20 00:37:40;;;;;;;0.00;0.00;;;23.40;66.90;;;;;;4209399;28;20551;-67
2022/05/20 00:40:04;;;;;;;0.22;0.22;;;23.40;67.10;;;;;;4207789;28;20459;-67
2022/05/20 00:42:27;;;;;;;0.00;0.00;;;23.40;66.90;;;;;;4210555;28;20081;-67
2022/05/20 00:44:49;;;;;;;0.00;0.00;;;23.40;67.80;;;;;;4209101;28;20050;-67
2022/05/20 00:47:13;;;;;;;0.15;0.15;;;23.40;66.90;;;;;;4208970;28;20089;-67
2022/05/20 00:49:37;;;;;;;0.00;0.00;;;23.40;66.90;;;;;;4209434;28;20163;-67
2022/05/20 00:51:59;;;;;;;0.00;0.00;;;23.40;66.80;;;;;;4209277;28;20098;-67
2022/05/20 00:54:24;;;;;;;0.00;0.00;;;23.30;66.80;;;;;;4208939;28;20048;-67
2022/05/20 00:56:52;;;;;;;0.00;0.00;;;23.40;66.80;;;;;;4209406;28;20052;-67
2022/05/20 00:59:21;;;;;;;0.00;0.00;;;23.30;66.80;;;;;;4208654;28;20117;-67
2022/05/20 01:01:47;;;;;;;0.00;0.00;;;23.30;66.80;;;;;;4208999;28;25112;-67
2022/05/20 01:04:10;;;;;;;0.00;0.00;;;23.30;66.80;;;;;;4208385;28;20047;-67
2022/05/20 01:06:33;;;;;;;0.00;0.00;;;23.30;66.80;;;;;;4208297;28;20131;-67
2022/05/20 01:08:55;;;;;;;0.00;0.00;;;23.30;66.90;;;;;;4208517;28;20122;-67
2022/05/20 01:11:17;;;;;;;0.00;0.00;;;23.30;67.80;;;;;;4208794;28;20102;-67
2022/05/20 01:13:44;;;;;;;0.00;0.00;;;23.30;67.00;;;;;;4208957;28;20044;-67
2022/05/20 01:16:11;;;;;;;0.10;0.10;;;23.30;67.00;;;;;;4208987;28;20487;-67
2022/05/20 01:18:36;;;;;;;0.05;0.05;;;23.30;67.00;;;;;;4207409;28;20387;-67
2022/05/20 01:20:58;;;;;;;0.00;0.00;;;23.30;67.00;;;;;;4207530;28;20069;-67
2022/05/20 01:23:23;;;;;;;0.00;0.00;;;23.30;66.90;;;;;;4208979;28;20046;-67
2022/05/20 01:25:49;;;;;;;0.00;0.00;;;23.30;66.90;;;;;;4208927;28;20473;-67
2022/05/20 01:28:12;;;;;;;0.00;0.00;;;23.30;66.90;;;;;;4191909;28;20051;-67
2022/05/20 01:30:34;;;;;;;0.40;0.40;;;23.30;66.90;;;;;;4192043;28;20063;-67
2022/05/20 01:32:59;;;;;;;0.00;0.00;;;23.30;66.80;;;;;;4192002;28;20049;-68
2022/05/20 01:35:26;;;;;;;0.00;0.00;;;23.30;66.80;;;;;;4208153;28;20154;-68
2022/05/20 01:37:48;;;;;;;0.30;0.30;;;23.30;66.80;;;;;;4193087;28;20048;-67
2022/05/20 01:40:12;;;;;;;0.00;0.00;;;23.30;66.80;;;;;;4208456;28;20063;-67
2022/05/20 01:42:40;;;;;;;0.00;0.00;;;23.30;66.80;;;;;;4223592;28;20101;-67
2022/05/20 01:45:09;;;;;;;0.10;0.10;;;23.20;66.60;;;;;;4225314;28;20520;-67
2022/05/20 01:47:40;;;;;;;0.00;0.00;;;23.20;66.60;;;;;;4224999;28;20050;-67
2022/05/20 01:50:10;;;;;;;0.00;0.00;;;23.20;66.60;;;;;;4225530;28;20122;-67
2022/05/20 01:52:38;;;;;;;0.00;0.00;;;23.20;66.60;;;;;;4225012;28;20055;-67
2022/05/20 01:55:05;;;;;;;0.00;0.00;;;23.20;67.50;;;;;;4221890;28;20063;-67
2022/05/20 01:57:34;;;;;;;0.10;0.10;;;23.20;66.60;;;;;;4208151;28;20127;-67
2022/05/20 02:00:03;;;;;;;0.00;0.00;;;23.20;66.60;;;;;;4208848;28;20051;-67
2022/05/20 02:02:34;;;;;;;0.10;0.10;;;23.20;66.60;;;;;;4209241;28;20062;-67
2022/05/20 02:05:03;;;;;;;0.00;0.00;;;23.20;66.60;;;;;;4208121;28;20048;-67
2022/05/20 02:07:30;;;;;;;0.00;0.00;;;23.20;66.50;;;;;;4209650;28;20059;-67
2022/05/20 02:09:58;;;;;;;0.00;0.00;;;23.20;66.50;;;;;;4211392;28;20058;-67
2022/05/20 02:12:23;;;;;;;0.08;0.08;;;23.10;66.30;;;;;;4212489;27;20380;-67
2022/05/20 02:14:56;;;;;;;0.03;0.03;;;23.10;66.30;;;;;;4211796;28;20052;-67
2022/05/20 02:17:22;;;;;;;0.10;0.10;;;23.10;66.30;;;;;;4210964;28;20510;-67
2022/05/20 02:19:48;;;;;;;0.00;0.00;;;23.10;66.30;;;;;;4211224;28;20052;-67
2022/05/20 02:22:15;;;;;;;0.00;0.00;;;23.10;67.20;;;;;;4211193;28;20135;-67
2022/05/20 02:24:40;;;;;;;0.43;0.43;;;23.10;66.40;;;;;;4211419;28;20059;-68
2022/05/20 02:27:06;;;;;;;0.00;0.00;;;23.10;66.50;;;;;;4211895;28;20055;-68
2022/05/20 02:29:33;;;;;;;0.00;0.00;;;23.10;66.40;;;;;;4210832;28;20048;-67
2022/05/20 02:32:03;;;;;;;0.00;0.00;;;23.10;66.40;;;;;;4210558;28;20067;-67
2022/05/20 02:34:26;;;;;;;0.00;0.00;;;23.10;66.50;;;;;;4210585;28;20059;-68
2022/05/20 02:36:48;;;;;;;0.00;0.00;;;23.10;67.30;;;;;;4209951;28;20071;-67
2022/05/20 02:39:15;;;;;;;0.00;0.00;;;23.00;66.40;;;;;;4210551;28;20436;-67
2022/05/20 02:41:38;;;;;;;0.00;0.00;;;23.00;66.40;;;;;;4192435;28;20052;-68
2022/05/20 02:44:00;;;;;;;0.38;0.38;;;23.00;66.30;;;;;;4194123;28;20048;-69
2022/05/20 02:46:22;;;;;;;0.47;0.47;;;23.00;66.30;;;;;;4193859;28;20044;-68
2022/05/20 02:48:46;;;;;;;0.00;0.00;;;23.00;66.30;;;;;;4208014;27;20044;-67
2022/05/20 02:51:08;;;;;;;0.30;0.30;;;23.00;66.20;;;;;;4227447;27;20417;-67
2022/05/20 02:53:30;;;;;;;1.52;1.23;;;23.00;66.20;;;;;;4227695;27;20092;-67
2022/05/20 02:55:52;;;;;;;0.00;0.00;;;23.00;66.20;;;;;;4224230;27;20411;-67
2022/05/20 03:04:09;;;;;;;0.22;0.22;;;23.00;66.20;;;;;;4211015;28;20531;-67
2022/05/20 03:06:15;;;;;;;0.00;0.00;;;22.90;66.10;;;;;;4210463;28;20082;-67
2022/05/20 03:08:36;;;;;;;0.22;0.22;;;23.00;66.10;;;;;;4210563;28;20072;-67
2022/05/20 03:10:58;;;;;;;0.00;0.00;;;22.90;66.00;;;;;;4216799;27;20058;-67
2022/05/20 03:13:20;;;;;;;0.00;0.00;;;22.90;66.00;;;;;;4227220;27;20788;-66
2022/05/20 03:15:43;;;;;;;0.00;0.00;;;22.90;66.10;;;;;;4226938;27;20494;-67
2022/05/20 03:18:05;;;;;;;0.00;0.00;;;22.90;66.10;;;;;;4227325;28;20113;-66
2022/05/20 03:20:27;;;;;;;0.20;0.20;;;22.90;66.10;;;;;;4227431;27;20055;-67
2022/05/20 03:22:51;;;;;;;0.08;0.08;;;22.90;66.10;;;;;;4227179;27;20044;-67
2022/05/20 03:25:13;;;;;;;0.00;0.00;;;22.90;66.10;;;;;;4215599;28;20047;-67
2022/05/20 03:27:37;;;;;;;0.13;0.13;;;22.90;66.10;;;;;;4208332;28;20072;-67
2022/05/20 03:29:59;;;;;;;3.63;2.13;;;22.90;66.10;;;;;;4209451;28;20048;-67
2022/05/20 03:32:22;;;;;;;0.00;0.00;;;22.90;66.10;;;;;;4208914;28;20495;-68
2022/05/20 03:34:44;;;;;;;0.00;0.00;;;22.80;66.00;;;;;;4208756;28;20113;-67
2022/05/20 03:37:07;;;;;;;0.05;0.05;;;22.80;66.00;;;;;;4209922;28;20076;-67
2022/05/20 03:39:30;;;;;;;0.00;0.00;;;22.80;66.00;;;;;;4209991;28;20047;-67
2022/05/20 03:41:53;;;;;;;0.00;0.00;;;22.80;66.80;;;;;;4193348;28;20125;-67
2022/05/20 03:44:17;;;;;;;0.00;0.00;;;22.80;65.90;;;;;;4193308;28;20118;-68
2022/05/20 03:46:40;;;;;;;0.00;0.00;;;22.80;65.90;;;;;;4198866;28;20491;-67
2022/05/20 03:49:03;;;;;;;0.10;0.10;;;22.80;66.60;;;;;;4209466;28;20044;-68
2022/05/20 03:51:25;;;;;;;0.00;0.00;;;22.80;65.90;;;;;;4208111;28;20054;-68
2022/05/20 03:53:47;;;;;;;0.55;0.45;;;22.80;65.90;;;;;;4212934;28;20047;-68
2022/05/20 03:56:11;;;;;;;0.52;0.52;;;22.80;65.90;;;;;;4226523;28;20494;-68
2022/05/20 03:58:33;;;;;;;0.47;0.47;;;22.80;65.90;;;;;;4226697;27;20058;-68
2022/05/20 04:03:40;;;;;;;0.65;0.65;;;22.80;65.80;;;;;;4209626;28;20546;-68
2022/05/20 04:06:02;;;;;;;0.10;0.10;;;22.70;65.80;;;;;;4209587;28;20055;-68
2022/05/20 04:08:24;;;;;;;0.00;0.00;;;22.70;65.80;;;;;;4209392;28;20071;-69
2022/05/20 04:10:46;;;;;;;0.00;0.00;;;22.70;65.70;;;;;;4217831;28;20060;-68
2022/05/20 04:13:10;;;;;;;0.00;0.00;;;22.70;65.70;;;;;;4225888;27;20043;-68
2022/05/20 04:15:32;;;;;;;0.00;0.00;;;22.70;65.70;;;;;;4225470;28;20043;-67
2022/05/20 04:17:54;;;;;;;0.00;0.00;;;22.70;65.70;;;;;;4224562;28;20043;-67
2022/05/20 04:20:16;;;;;;;0.00;0.00;;;22.70;65.60;;;;;;4226295;28;20519;-67
2022/05/20 04:22:40;;;;;;;0.00;0.00;;;22.70;66.50;;;;;;4226203;27;20136;-68
2022/05/20 04:25:02;;;;;;;0.00;0.00;;;22.70;65.70;;;;;;4226269;27;20051;-66
2022/05/20 04:27:25;;;;;;;0.00;0.00;;;22.70;65.60;;;;;;4212053;28;20051;-67
2022/05/20 04:29:48;;;;;;;0.05;0.05;;;22.70;65.60;;;;;;4208616;28;20139;-67
2022/05/20 04:32:10;;;;;;;0.00;0.00;;;22.70;65.60;;;;;;4192492;28;20496;-67
2022/05/20 04:34:32;;;;;;;0.00;0.00;;;22.70;65.60;;;;;;4194697;28;20506;-67
2022/05/20 04:36:54;;;;;;;0.00;0.00;;;22.70;66.00;;;;;;4209142;28;20047;-66
2022/05/20 04:39:17;;;;;;;0.00;0.00;;;22.70;65.60;;;;;;4209168;28;20052;-67
2022/05/20 04:47:01;;;;;;;0.10;0.10;;;22.70;65.70;;;;;;4225721;27;20104;-69
2022/05/20 04:49:23;;;;;;;0.17;0.17;;;22.70;65.80;;;;;;4224089;28;20063;-69
2022/05/20 04:51:45;;;;;;;0.00;0.00;;;22.70;65.70;;;;;;4224903;28;20044;-69
2022/05/20 04:56:49;;;;;;;0.00;0.00;;;22.70;65.60;;;;;;4225601;27;20109;-69
2022/05/20 04:59:11;;;;;;;0.20;0.20;;;22.70;65.60;;;;;;4223712;28;20371;-70
2022/05/20 05:01:34;;;;;;;0.00;0.00;;;22.70;65.60;;;;;;4211365;28;20056;-69
2022/05/20 05:03:57;;;;;;;0.00;0.00;;;22.70;65.60;;;;;;4208973;28;20505;-69
2022/05/20 05:06:19;;;;;;;0.00;0.00;;;22.70;65.60;;;;;;4208454;28;20056;-69
2022/05/20 05:08:41;;;;;;;0.00;0.00;;;22.70;65.60;;;;;;4207373;28;20533;-69
2022/05/20 05:11:03;;;;;;;0.00;0.00;;;22.70;65.60;;;;;;4207558;28;20093;-67
2022/05/20 05:13:26;;;;;;;0.00;0.00;;;22.70;65.50;;;;;;4209283;28;20098;-70
2022/05/20 05:15:48;;;;;;;0.00;0.00;;;22.70;65.70;;;;;;4225462;28;20450;-69
2022/05/20 05:18:12;;;;;;;1.80;0.65;;;22.70;65.70;;;;;;4225893;28;20043;-70
2022/05/20 05:20:36;;;;;;;0.00;0.00;;;22.70;65.60;;;;;;4225719;28;20082;-69
2022/05/20 05:22:59;;;;;;;0.20;0.20;;;22.80;65.60;;;;;;4225824;28;20043;-68
2022/05/20 05:25:24;;;;;;;0.00;0.00;;;22.80;65.40;;;;;;4222044;28;20059;-69
2022/05/20 05:27:47;;;;;;;0.03;0.03;;;22.80;65.40;;;;;;4203220;28;20071;-69
2022/05/20 05:30:12;;;;;;;0.00;0.00;;;22.80;65.40;;;;;;4208270;28;20056;-69
2022/05/20 05:32:35;;;;;;;0.10;0.10;;;22.80;65.30;;;;;;4213526;28;20463;-69
2022/05/20 05:34:57;;;;;;;0.00;0.00;;;22.80;65.30;;;;;;4201474;28;20060;-69
2022/05/20 05:37:20;;;;;;;0.17;0.17;;;22.80;65.30;;;;;;4201255;28;20074;-69
2022/05/20 05:39:42;;;;;;;0.00;0.00;;;22.90;66.20;;;;;;4197145;28;20080;-69
2022/05/20 05:42:05;;;;;;;2.72;0.70;;;22.90;65.10;;;;;;4206557;28;20127;-69
2022/05/20 05:44:28;;;;;;;0.00;0.00;;;22.80;65.00;;;;;;4214454;27;20071;-69
2022/05/20 05:46:50;;;;;;;1.77;1.73;;;22.80;65.00;;;;;;4228622;28;20066;-70
2022/05/20 05:49:13;;;;;;;0.10;0.10;;;22.80;65.00;;;;;;4228376;27;20491;-69
2022/05/20 05:51:35;;;;;;;0.40;0.40;;;22.80;65.00;;;;;;4207479;28;20404;-69
2022/05/20 05:53:58;;;;;;;0.55;0.40;;;22.80;65.10;;;;;;4193625;28;20052;-69
2022/05/20 05:56:20;;;;;;;0.00;0.00;;;22.80;65.00;;;;;;4206504;28;20054;-69
2022/05/20 05:58:42;;;;;;;0.60;0.60;;;22.80;65.00;;;;;;4211335;28;20089;-69
2022/05/20 06:01:04;;;;;;;0.00;0.00;;;22.80;65.90;;;;;;4211419;28;20474;-69
2022/05/20 06:03:26;;;;;;;0.35;0.35;;;22.80;65.00;;;;;;4216009;28;20051;-70
2022/05/20 06:05:49;;;;;;;0.10;0.10;;;22.80;65.00;;;;;;4216485;28;20399;-69
2022/05/20 06:08:11;;;;;;;0.70;0.70;;;22.80;64.90;;;;;;4216056;28;20101;-70
2022/05/20 06:10:34;;;;;;;0.13;0.13;;;22.80;64.90;;;;;;4200964;28;20131;-70
2022/05/20 06:12:57;;;;;;;4.75;2.10;;;22.80;64.80;;;;;;4214161;28;20491;-69
2022/05/20 06:15:22;;;;;;;0.10;0.10;;;22.70;64.70;;;;;;4197346;28;20083;-70
2022/05/20 06:17:45;;;;;;;0.20;0.20;;;22.70;64.80;;;;;;4206745;28;20060;-70
2022/05/20 06:20:08;;;;;;;0.47;0.47;;;22.70;64.70;;;;;;4213294;28;20056;-69
2022/05/20 06:22:30;;;;;;;0.55;0.55;;;22.70;64.80;;;;;;4210021;28;20060;-69
2022/05/20 06:24:52;;;;;;;0.00;0.00;;;22.70;64.70;;;;;;4196028;28;20066;-69
2022/05/20 06:27:16;;;;;;;0.15;0.15;;;22.70;65.50;;;;;;4198299;28;20172;-69
2022/05/20 06:29:38;;;;;;;1.00;0.22;;;22.70;64.70;;;;;;4198895;28;20060;-69
2022/05/20 06:32:00;;;;;;;0.20;0.20;;;22.70;64.60;;;;;;4201522;28;20067;-70
2022/05/20 06:34:22;;;;;;;0.00;0.00;;;22.70;64.60;;;;;;4195373;28;20059;-69
2022/05/20 06:42:06;;;;;;;0.00;0.00;;;22.70;64.50;;;;;;4205511;28;20056;-70
2022/05/20 06:44:31;;;;;;;0.05;0.05;;;22.70;64.40;;;;;;4196825;28;20201;-70
2022/05/20 06:46:54;;;;;;;0.00;0.00;;;22.70;64.30;;;;;;4196811;28;20723;-70
2022/05/20 06:49:16;;;;;;;0.00;0.00;;;22.80;64.20;;;;;;4198067;28;20482;-70
2022/05/20 06:51:38;;;;;;;0.75;0.65;;;22.70;63.90;;;;;;4200393;28;20059;-69
2022/05/20 06:54:01;;;;;;;0.00;0.00;;;22.80;64.00;;;;;;4199381;28;20056;-69
2022/05/20 06:56:25;;;;;;;0.32;0.32;;;22.70;63.80;;;;;;4203983;28;20048;-69
2022/05/20 06:58:47;;;;;;;2.17;0.70;;;22.80;63.60;;;;;;4211541;28;20067;-69
2022/05/20 07:01:11;;;;;;;0.28;0.28;;;22.80;63.50;;;;;;4197237;28;20047;-69
2022/05/20 07:03:33;;;;;;;0.25;0.25;;;22.80;63.40;;;;;;4196845;28;20501;-70
2022/05/20 07:05:56;;;;;;;0.03;0.03;;;22.80;63.50;;;;;;4197693;28;20454;-69
2022/05/20 07:08:18;;;;;;;0.30;0.30;;;22.80;63.40;;;;;;4203250;28;20113;-69
2022/05/20 07:10:40;;;;;;;0.30;0.30;;;22.80;63.20;;;;;;4200197;28;20160;-69
2022/05/20 07:13:23;;;;;;;0.40;0.38;;;22.80;63.30;;;;;;4205242;28;20445;-69
2022/05/20 07:15:45;;;;;;;0.00;0.00;;;22.80;63.40;;;;;;4207041;28;20052;-70
2022/05/20 07:18:09;;;;;;;0.10;0.10;;;22.80;63.40;;;;;;4202235;28;20996;-69
2022/05/20 07:20:31;;;;;;;0.05;0.05;;;22.80;63.30;;;;;;4200213;28;20059;-69
2022/05/20 07:22:53;;;;;;;0.52;0.52;;;22.80;63.40;;;;;;4209320;28;20070;-70
2022/05/20 07:25:15;;;;;;;0.55;0.55;;;22.80;63.20;;;;;;4206900;28;20080;-69
2022/05/20 07:27:38;;;;;;;0.10;0.10;;;22.90;63.10;;;;;;4196253;28;20485;-69
2022/05/20 07:30:00;;;;;;;0.70;0.45;;;22.90;62.90;;;;;;4202620;28;20056;-70
2022/05/20 07:32:22;;;;;;;0.00;0.00;;;22.90;62.90;;;;;;4200187;28;20056;-66
2022/05/20 07:34:46;;;;;;;0.00;0.00;;;23.00;63.00;;;;;;4208904;28;20084;-66
2022/05/20 07:37:08;;;;;;;0.45;0.45;;;22.90;63.00;;;;;;4208592;28;20522;-66
2022/05/20 07:39:30;;;;;;;0.80;0.80;;;22.90;63.00;;;;;;4195631;28;20475;-65
2022/05/20 07:41:52;;;;;;;0.47;0.47;;;22.90;62.80;;;;;;4206026;28;20058;-65
2022/05/20 07:44:15;;;;;;;0.35;0.35;;;22.90;62.80;;;;;;4197117;28;20555;-66
2022/05/20 07:46:37;;;;;;;0.30;0.30;;;22.90;62.70;;;;;;4197375;28;20609;-66
2022/05/20 07:49:00;;;;;;;0.00;0.00;;;22.90;62.80;;;;;;4211079;28;20075;-66
2022/05/20 07:51:25;;;;;;;0.20;0.20;;;22.90;62.70;;;;;;4196222;28;20052;-66
2022/05/20 07:53:53;;;;;;;0.00;0.00;;;23.00;62.60;;;;;;4203170;28;20056;-66
2022/05/20 07:56:19;;;;;;;1.17;1.08;;;23.00;62.40;;;;;;4210676;28;20062;-67
2022/05/20 07:58:46;;;;;;;0.13;0.13;;;23.00;62.10;;;;;;4203933;28;20056;-67
2022/05/20 08:01:11;;;;;;;0.15;0.15;;;23.00;62.20;;;;;;4200617;28;20053;-69
2022/05/20 08:06:16;;;;;;;0.13;0.13;;;23.00;62.80;;;;;;4199944;28;20092;-65
2022/05/20 08:08:39;;;;;;;0.00;0.00;;;23.00;62.90;;;;;;4202456;28;20113;-64
2022/05/20 08:11:02;;;;;;;0.90;0.90;;;23.10;62.80;;;;;;4206013;28;20140;-65
2022/05/20 08:13:25;;;;;;;0.00;0.00;;;23.10;62.50;;;;;;4204291;28;20060;-65
2022/05/20 08:15:47;;;;;;;5.10;2.47;;;23.20;62.50;;;;;;4203784;28;20067;-64
2022/05/20 08:18:09;;;;;;;0.00;0.00;;;23.20;62.30;;;;;;4200082;28;20056;-64
2022/05/20 08:20:31;;;;;;;0.00;0.00;;;23.20;63.00;;;;;;4201607;28;20056;-63
2022/05/20 08:22:54;;;;;;;1.85;1.75;;;23.20;61.80;;;;;;4194765;28;20056;-64
2022/05/20 08:25:18;;;;;;;0.03;0.03;;;23.30;61.70;;;;;;4199469;28;20388;-64
2022/05/20 08:27:40;;;;;;;0.38;0.38;;;23.30;61.50;;;;;;4206647;28;20091;-64
2022/05/20 08:30:08;;;;;;;0.10;0.10;;;23.30;61.40;;;;;;4209880;28;20073;-65
2022/05/20 08:32:30;;;;;;;0.00;0.00;;;23.30;61.50;;;;;;4202083;28;20399;-65
2022/05/20 08:34:52;;;;;;;0.08;0.08;;;23.20;61.50;;;;;;4203692;28;20059;-65
2022/05/20 08:37:16;;;;;;;0.03;0.03;;;23.30;61.50;;;;;;4208829;28;20047;-65
2022/05/20 08:39:38;;;;;;;0.00;0.00;;;23.30;61.50;;;;;;4196523;28;20127;-64
2022/05/20 08:42:04;;;;;;;0.00;0.00;;;23.30;61.40;;;;;;4209874;28;20139;-65
2022/05/20 08:44:27;;;;;;;0.00;0.00;;;23.30;61.20;;;;;;4196868;28;20048;-65
2022/05/20 08:46:50;;;;;;;0.00;0.00;;;23.30;61.20;;;;;;4210873;28;20064;-65
2022/05/20 08:49:15;;;;;;;0.00;0.00;;;23.30;61.10;;;;;;4210651;28;20055;-65
2022/05/20 08:51:41;;;;;;;0.00;0.00;;;23.30;61.00;;;;;;4210970;28;20141;-64
2022/05/20 08:54:05;;;;;;;0.13;0.13;;;23.30;61.00;;;;;;4194221;28;20408;-65
2022/05/20 08:56:28;;;;;;;0.03;0.03;;;23.30;60.90;;;;;;4198703;28;20056;-65
2022/05/20 08:58:54;;;;;;;0.00;0.00;;;23.30;60.90;;;;;;4205115;28;20057;-65
2022/05/20 09:01:17;;;;;;;0.10;0.10;;;23.30;60.60;;;;;;4209036;27;20598;-65
2022/05/20 09:03:39;;;;;;;0.10;0.10;;;23.40;60.60;;;;;;4194521;28;20056;-64
2022/05/20 09:06:07;;;;;;;0.20;0.20;;;23.40;60.40;;;;;;4201895;28;20056;-64
2022/05/20 09:08:29;;;;;;;0.40;0.40;;;23.40;60.40;;;;;;4196149;28;20411;-62
2022/05/20 09:10:54;;;;;;;0.00;0.00;;;23.40;60.10;;;;;;4200057;28;20051;-64
2022/05/20 09:13:21;;;;;;;0.00;0.00;;;23.50;60.00;;;;;;4195226;28;20360;-63
2022/05/20 09:15:56;;;;;;;0.00;0.00;;;23.50;59.90;;;;;;4203206;28;20052;-63
2022/05/20 09:18:30;;;;;;;0.10;0.10;;;23.50;59.80;;;;;;4206892;28;20175;-64
2022/05/20 09:20:54;;;;;;;0.08;0.08;;;23.60;59.80;;;;;;4214263;28;20160;-63
2022/05/20 09:23:20;;;;;;;0.22;0.22;;;23.60;59.70;;;;;;4203484;28;20055;-63
2022/05/20 09:25:55;;;;;;;0.35;0.35;;;23.60;59.30;;;;;;4200447;28;20060;-63
2022/05/20 09:28:26;;;;;;;0.93;0.93;;;23.60;59.00;;;;;;4201448;28;20143;-64
2022/05/20 09:30:53;;;;;;;0.05;0.05;;;23.60;59.00;;;;;;4203495;28;20127;-64
2022/05/20 09:33:19;;;;;;;0.40;0.40;;;23.60;59.10;;;;;;4207597;28;20855;-64
2022/05/20 09:35:47;;;;;;;0.00;0.00;;;23.60;59.10;;;;;;4208816;28;20059;-64
2022/05/20 09:38:11;;;;;;;0.10;0.10;;;23.60;59.10;;;;;;4206062;28;20064;-64
2022/05/20 09:40:36;;;;;;;0.00;0.00;;;23.60;59.10;;;;;;4211643;28;20155;-64
2022/05/20 09:43:25;;;;;;;0.00;0.00;;;23.70;59.10;;;;;;4201646;28;20067;-64
2022/05/20 09:45:50;;;;;;;0.00;0.00;;;23.70;59.10;;;;;;4197622;28;20061;-64
2022/05/20 09:48:16;;;;;;;0.20;0.20;;;23.70;59.00;;;;;;4197829;28;20434;-64
2022/05/20 09:50:39;;;;;;;0.00;0.00;;;23.70;58.70;;;;;;4201476;28;20507;-64
2022/05/20 09:53:04;;;;;;;0.00;0.00;;;23.70;58.70;;;;;;4197672;28;20462;-64
2022/05/20 09:55:31;;;;;;;0.50;0.50;;;23.80;58.60;;;;;;4198220;28;20071;-64
2022/05/20 09:57:56;;;;;;;0.00;0.00;;;23.80;58.60;;;;;;4213577;28;20139;-64
2022/05/20 10:00:26;;;;;;;0.00;0.00;;;23.80;58.60;;;;;;4205177;28;20059;-64
2022/05/20 10:02:57;;;;;;;0.00;0.00;;;23.80;58.60;;;;;;4213590;28;20048;-63
2022/05/20 10:05:27;;;;;;;1.27;0.80;;;23.80;58.60;;;;;;4213488;28;20410;-64
2022/05/20 10:08:00;;;;;;;0.00;0.00;;;23.80;58.60;;;;;;4197553;28;20056;-64
2022/05/20 10:10:33;;;;;;;0.30;0.30;;;23.80;58.50;;;;;;4197183;28;20052;-64
2022/05/20 10:12:58;;;;;;;0.00;0.00;;;23.80;58.50;;;;;;4197409;28;20049;-65
2022/05/20 10:15:24;;;;;;;0.00;0.00;;;23.80;58.60;;;;;;4197395;28;20060;-64
2022/05/20 10:18:01;;;;;;;0.00;0.00;;;23.80;58.60;;;;;;4197299;28;20056;-64
2022/05/20 10:20:34;;;;;;;0.00;0.00;;;23.70;58.60;;;;;;4197368;28;20053;-64
2022/05/20 10:23:03;;;;;;;0.55;0.55;;;23.70;58.60;;;;;;4208331;28;20552;-64
2022/05/20 10:25:31;;;;;;;0.47;0.47;;;23.70;58.60;;;;;;4196666;28;20046;-64
2022/05/20 10:28:00;;;;;;;0.00;0.00;;;23.70;58.60;;;;;;4196677;28;20125;-64
2022/05/20 10:33:09;;;;;;;0.25;0.25;;;23.70;58.80;;;;;;4225360;28;20130;-64
2022/05/20 10:35:46;;;;;;;0.13;0.13;;;23.70;58.80;;;;;;4232552;28;20055;-70
2022/05/20 10:38:28;;;;;;;0.10;0.10;;;23.80;59.00;;;;;;4232567;28;20090;-70
2022/05/20 10:41:02;;;;;;;0.10;0.10;;;23.80;59.60;;;;;;4231808;28;20376;-70
2022/05/20 10:49:23;;;;;;;0.00;0.00;;;23.80;58.90;;;;;;4232505;28;20185;-70
2022/05/20 10:51:58;;;;;;;1.95;1.55;;;23.80;58.70;;;;;;4232255;28;20058;-70
2022/05/20 10:54:47;;;;;;;0.10;0.10;;;23.80;58.80;;;;;;4232206;28;20062;-70
2022/05/20 10:57:42;;;;;;;0.00;0.00;;;23.80;58.80;;;;;;4231816;28;20105;-70
2022/05/20 11:00:09;;;;;;;1.65;1.55;;;23.80;58.70;;;;;;4230463;28;20051;-70
2022/05/20 11:03:20;;;;;;;0.20;0.20;;;23.80;58.70;;;;;;4215480;28;20126;-70
2022/05/20 11:06:02;;;;;;;0.08;0.05;;;23.80;58.60;;;;;;4215370;28;20063;-70
2022/05/20 11:08:37;;;;;;;0.03;0.03;;;23.80;58.60;;;;;;4215217;28;20487;-70
2022/05/20 11:11:16;;;;;;;0.00;0.00;;;23.80;58.60;;;;;;4215110;28;20407;-70
2022/05/20 11:13:53;;;;;;;1.08;0.85;;;23.80;58.50;;;;;;4214830;28;20063;-70
2022/05/20 11:16:39;;;;;;;0.40;0.40;;;23.80;58.40;;;;;;4215262;28;20056;-70
2022/05/20 11:19:15;;;;;;;0.10;0.10;;;23.90;58.50;;;;;;4215139;28;20062;-70
2022/05/20 11:21:56;;;;;;;0.03;0.03;;;23.90;58.40;;;;;;4215134;28;20067;-70
2022/05/20 11:24:33;;;;;;;0.00;0.00;;;23.90;58.20;;;;;;4215071;28;20174;-70
2022/05/20 11:27:09;;;;;;;0.52;0.50;;;23.90;58.10;;;;;;4214753;28;20158;-70
2022/05/20 11:29:42;;;;;;;0.00;0.00;;;23.90;58.10;;;;;;4213801;28;20059;-70
2022/05/20 11:32:07;;;;;;;0.00;0.00;;;23.90;58.80;;;;;;4214698;28;20052;-65
2022/05/20 11:34:55;;;;;;;0.00;0.00;;;24.00;57.90;;;;;;4214977;28;20105;-65
2022/05/20 11:37:48;;;;;;;0.00;0.00;;;24.00;57.80;;;;;;4191987;28;20423;-65
2022/05/20 11:40:35;;;;;;;0.00;0.00;;;24.00;57.70;;;;;;4213592;28;20052;-65
2022/05/20 11:43:20;;;;;;;0.00;0.00;;;24.00;57.70;;;;;;4214342;28;20052;-65
2022/05/20 11:45:52;;;;;;;0.00;0.00;;;24.00;57.70;;;;;;4214785;28;20105;-65
2022/05/20 11:48:26;;;;;;;0.00;0.00;;;24.10;57.60;;;;;;4214449;28;20056;-65
2022/05/20 11:51:05;;;;;;;0.17;0.17;;;24.00;58.10;;;;;;4213200;28;20135;-65
2022/05/20 11:53:38;;;;;;;0.30;0.30;;;24.10;57.30;;;;;;4214392;28;20135;-65
2022/05/20 11:56:06;;;;;;;5.63;0.65;;;24.10;57.30;;;;;;4214369;28;20144;-65
2022/05/20 11:58:36;;;;;;;0.13;0.13;;;24.10;57.20;;;;;;4212596;28;20379;-65
2022/05/20 12:00:59;;;;;;;3.17;2.03;;;24.10;57.20;;;;;;4213968;28;20063;-66
2022/05/20 12:03:27;;;;;;;1.33;1.23;;;24.10;57.20;;;;;;4214405;28;20048;-66
2022/05/20 12:05:51;;;;;;;0.38;0.38;;;24.10;57.10;;;;;;4214306;28;20055;-64
2022/05/20 12:08:46;;;;;;;0.10;0.10;;;24.10;56.90;;;;;;4214512;28;20055;-65
2022/05/20 12:11:24;;;;;;;5.18;1.92;;;24.10;56.70;;;;;;4213273;28;20060;-65
2022/05/20 12:14:00;;;;;;;0.30;0.30;;;24.20;56.70;;;;;;4212677;28;20491;-65
2022/05/20 12:16:22;;;;;;;0.10;0.10;;;24.20;56.80;;;;;;4214106;28;20665;-65
2022/05/20 12:24:33;;;;;;;0.20;0.20;;;24.20;56.70;;;;;;4213964;28;20059;-65
2022/05/20 12:26:57;;;;;;;0.45;0.45;;;24.20;56.60;;;;;;4213979;28;20059;-65
2022/05/20 12:30:05;;;;;;;0.28;0.28;;;24.20;56.50;;;;;;4213574;28;20376;-65
2022/05/20 12:32:44;;;;;;;0.00;0.00;;;24.20;56.50;;;;;;4213981;28;20102;-64
2022/05/20 12:35:11;;;;;;;0.00;0.00;;;24.30;56.30;;;;;;4214038;28;20051;-65
2022/05/20 12:37:52;;;;;;;0.00;0.00;;;24.30;56.20;;;;;;4213950;28;20478;-65
2022/05/20 12:40:17;;;;;;;0.65;0.65;;;24.30;56.20;;;;;;4213853;28;20048;-65
2022/05/20 12:42:49;;;;;;;0.00;0.00;;;24.30;56.20;;;;;;4213809;28;20066;-66
2022/05/20 12:45:11;;;;;;;0.65;0.35;;;24.30;56.20;;;;;;4213268;28;20048;-65
2022/05/20 12:47:34;;;;;;;0.00;0.00;;;24.30;55.90;;;;;;4213825;28;20080;-65
2022/05/20 12:50:05;;;;;;;0.00;0.00;;;24.30;55.90;;;;;;4213421;28;20052;-65
2022/05/20 12:52:29;;;;;;;1.02;0.13;;;24.30;55.60;;;;;;4213689;28;20083;-64
2022/05/20 12:54:54;;;;;;;0.15;0.15;;;24.30;55.70;;;;;;4212496;28;20063;-66
2022/05/20 12:57:18;;;;;;;0.00;0.00;;;24.30;55.70;;;;;;4212726;28;20143;-65
2022/05/20 12:59:42;;;;;;;0.08;0.08;;;24.30;55.60;;;;;;4213230;28;20395;-65
2022/05/20 13:02:09;;;;;;;1.00;1.00;;;24.30;55.50;;;;;;4196795;28;20076;-64
2022/05/20 13:04:38;;;;;;;0.00;0.00;;;24.30;55.20;;;;;;4196739;28;20059;-65
2022/05/20 13:07:01;;;;;;;0.20;0.20;;;24.30;55.10;;;;;;4196636;28;20064;-64
2022/05/20 13:09:27;;;;;;;0.08;0.08;;;24.30;55.40;;;;;;4195456;28;20049;-64
2022/05/20 13:11:51;;;;;;;0.00;0.00;;;24.40;55.40;;;;;;4196383;28;20411;-65
2022/05/20 13:14:19;;;;;;;0.55;0.55;;;24.30;55.40;;;;;;4196518;28;20133;-64
2022/05/20 13:16:45;;;;;;;0.00;0.00;;;24.30;55.10;;;;;;4196019;28;20133;-64
2022/05/20 13:19:14;;;;;;;0.43;0.43;;;24.30;55.00;;;;;;4196610;28;20134;-69
2022/05/20 13:21:40;;;;;;;0.00;0.00;;;24.30;54.50;;;;;;4196671;28;20060;-69